createdAt,value
2023-03-15T00:00:02.939Z,67
2023-03-15T00:20:02.350Z,68
2023-03-15T00:40:02.376Z,69
2023-03-15T01:00:02.610Z,69
2023-03-15T01:20:02.210Z,70
2023-03-15T01:40:02.760Z,70
2023-03-15T02:00:03.269Z,71
2023-03-15T02:20:02.869Z,71
2023-03-15T02:40:02.391Z,71
2023-03-15T03:00:02.722Z,71
2023-03-15T03:20:02.631Z,72
2023-03-15T03:40:02.860Z,72
2023-03-15T04:00:03.124Z,72
2023-03-15T04:20:02.594Z,72
2023-03-15T04:40:02.966Z,72
2023-03-15T05:00:02.336Z,72
2023-03-15T05:20:02.958Z,72
2023-03-15T05:40:02.439Z,72
2023-03-15T06:00:02.771Z,73
2023-03-15T06:20:02.933Z,72
2023-03-15T06:40:02.648Z,72
2023-03-15T07:00:02.892Z,72
2023-03-15T07:20:02.395Z,72
2023-03-15T07:40:02.795Z,73
2023-03-15T08:00:03.062Z,73
2023-03-15T08:20:02.456Z,72
2023-03-15T08:40:02.876Z,72
2023-03-15T09:00:05.317Z,71
2023-03-15T09:20:03.136Z,69
2023-03-15T09:40:02.712Z,68
2023-03-15T10:00:03.528Z,67
2023-03-15T10:20:02.634Z,66
2023-03-15T10:40:02.919Z,65
2023-03-15T11:00:02.761Z,62
2023-03-15T11:20:03.272Z,60
2023-03-15T11:40:12.826Z,59
2023-03-15T12:00:02.527Z,57
2023-03-15T12:20:03.038Z,56
2023-03-15T12:40:02.421Z,53
2023-03-15T13:00:02.788Z,52
2023-03-15T13:20:02.516Z,52
2023-03-15T13:40:02.935Z,51
2023-03-15T14:00:03.361Z,51
2023-03-15T14:20:03.171Z,51
2023-03-15T14:40:02.699Z,58
2023-03-15T15:00:03.307Z,61
2023-03-15T15:20:03.508Z,61
2023-03-15T15:40:03.290Z,60
2023-03-15T16:00:03.316Z,54
2023-03-15T16:20:03.505Z,52
2023-03-15T16:40:03.105Z,51
2023-03-15T17:00:05.444Z,57
2023-03-15T17:20:03.066Z,63
2023-03-15T17:40:02.476Z,64
2023-03-15T18:00:03.758Z,65
2023-03-15T18:20:02.301Z,66
2023-03-15T18:40:02.721Z,66
2023-03-15T19:00:03.358Z,66
2023-03-15T19:20:03.121Z,67
2023-03-15T19:40:02.976Z,67
2023-03-15T20:00:02.674Z,67
2023-03-15T20:20:02.394Z,68
2023-03-15T20:40:02.956Z,67
2023-03-15T21:00:02.665Z,67
2023-03-15T21:20:03.294Z,67
2023-03-15T21:40:02.722Z,67
2023-03-15T22:00:03.161Z,68
2023-03-15T22:20:02.769Z,68
2023-03-15T22:40:03.311Z,69
2023-03-15T23:00:02.681Z,70
2023-03-15T23:20:03.125Z,71
2023-03-15T23:40:02.491Z,71
